• Join FlightAware (Why Join?)
  • Login
  • US Flag 
10:33PM EDT


 

Airport Tracker/Info


-or-


 

Live Flight TrackerFlight Track Log ✈ N273SK ✈ 22-Apr-2013 ✈ KIAD - KROC

Flight Track Log - Related Links

Times and Time Zones

All times are in EDT time to prevent confusion due to time zone crossing. See the N273SK flight status page for this flight to view local times or setup timezone preferences in your user account.

Time Position Orientation Groundspeed Altitude Reporting Facility
EDT Latitude Longitude Course Direction KTS MPH feet Rate Location/Type
09:55PM 39.0572 -77.4681 North 263 303 6,700  Level Washington Center
09:56PM 39.1342 -77.4728 357° North 263 303 10,000 2,700 Climbing Washington Center
09:57PM 39.2156 -77.4694 North 278 320 12,200 2,400 Climbing Washington Center
09:58PM 39.3114 -77.4667 North 311 358 14,800 2,220 Climbing Washington Center
10:00PM 39.4481 -77.4633 North 324 373 17,900 2,160 Climbing New York Center
10:01PM 39.5622 -77.4500 North  Level FlightAware Approximate
10:02PM 39.6425 -77.4547 North 348 400 22,600  Level New York Center
10:03PM 39.7492 -77.4514 North 363 418 23,000 180 Climbing New York Center
10:04PM 39.8700 -77.4522 360° North 395 455 23,000  Level New York Center
10:05PM 39.9933 -77.4503 North 424 488 23,000  Level New York Center
10:06PM 40.1144 -77.4456 North 435 501 23,000  Level New York Center
10:07PM 40.2369 -77.4547 357° North 435 501 23,000  Level New York Center
10:08PM 40.3717 -77.4706 355° North 440 506 23,000  Level New York Center
10:09PM 40.4917 -77.4822 356° North 440 506 23,000  Level New York Center
10:10PM 40.6119 -77.4939 356° North 435 501 23,000  Level New York Center
10:11PM 40.7344 -77.5058 356° North 435 501 23,000  Level New York Center
10:12PM 40.8544 -77.5203 355° North 435 501 23,000  Level New York Center
10:13PM 40.9747 -77.5322 356° North 435 501 23,000  Level New York Center
10:15PM 41.1611 -77.5519 355° North 431 496 23,000  Level Cleveland Center
10:16PM 41.2822 -77.5628 356° North 426 490 23,000  Level Cleveland Center
10:17PM 41.4014 -77.5767 355° North 426 490 23,000  Level Cleveland Center
10:18PM 41.5228 -77.5906 355° North 426 490 23,000  Level Cleveland Center
10:19PM 41.6419 -77.6044 355° North 426 490 23,000  Level Cleveland Center
10:20PM 41.7611 -77.6156 356° North 426 490 23,000  Level Cleveland Center
10:21PM 41.8783 -77.6269 356° North 426 490 23,000 -840 Level Cleveland Center
10:22PM 41.9744 -77.6392 355° North 389 448 21,400 -1,800 Descending Cleveland Center
10:23PM 42.0686 -77.6517 354° North 357 411 19,400 -1,740 Descending Cleveland Center
10:24PM 42.1583 -77.6617 355° North 334 384 18,000 -1,680 Descending Cleveland Center
10:25PM 42.2442 -77.6689 356° North 322 371 16,100 -1,920 Descending Cleveland Center
10:25PM 42.2903 -77.6781 352° North 311 358 15,100 -1,920 Descending Cleveland Center
10:26PM 42.3319 -77.6789 359° North 311 358 14,200 -2,160 Descending Cleveland Center
10:26PM 42.3550 -77.6833 352° North 308 354 13,600 -1,920 Descending Cleveland Center
10:27PM 42.4156 -77.6861 358° North 311 358 12,300 -1,800 Descending Cleveland Center
10:27PM 42.4386 -77.6908 351° North 303 349 11,800 -1,620 Descending Cleveland Center
10:28PM 42.4972 -77.6994 354° North 306 352 10,700 -1,680 Descending Cleveland Center
10:28PM 42.5203 -77.7039 352° North 289 333 10,100 -840 Descending Cleveland Center
10:29PM 42.5764 -77.6958 North 292 336 9,900 -420 Descending Cleveland Center
10:29PM 42.5928 -77.6922 North 257 296 9,700 -840 Descending Cleveland Center
10:30PM 42.6389 -77.6986 354° North 265 305 9,100 -1,020 Descending Cleveland Center
10:30PM 42.6539 -77.7119 327° Northwest 226 260 8,700 -1,440 Descending Cleveland Center
10:31PM 42.6983 -77.7411 334° Northwest 232 267 7,700 -1,380 Descending Cleveland Center
10:31PM 42.7111 -77.7575 317° Northwest 228 262 7,300 -1,020 Descending Cleveland Center
10:32PM 42.7450 -77.7786 335° Northwest 218 251 6,700 -1,200 Descending Cleveland Center
10:32PM 42.7664 -77.7975 327° Northwest 219 252 6,100 -1,200 Descending Cleveland Center
10:33PM 42.8003 -77.8214 333° Northwest 230 265 5,500 -1,020 Descending Cleveland Center
10:33PM 42.8172 -77.8375 325° Northwest 219 252 5,100 -840 Descending Cleveland Center
10:34PM 42.8553 -77.8558 341° North 230 265 4,700 -720 Descending Cleveland Center
10:34PM 42.8847 -77.8600 354° North 238 274 4,400 -600 Descending Cleveland Center
10:35PM 42.9258 -77.8469 13° North 223 257 4,100 -420 Descending Cleveland Center
10:35PM 42.9442 -77.8292 35° Northeast 235 270 4,000 -660 Descending Cleveland Center
10:36PM 42.9953 -77.7814 34° Northeast 221 254 3,200 -960 Descending Cleveland Center
10:37PM 43.0444 -77.7425 30° Northeast 195 224 2,100 -1,020 Descending Cleveland Center
10:38PM 43.0769 -77.7153 31° Northeast 133 153 1,200 -900 Descending Cleveland Center
10:40PM 43.1167 -77.6667 10° North  Level FlightAware Approximate
10:47PM 43.1191 -77.6719 10° North  Level Estimated